sensor_id;sensor_type;location;lat;lon;timestamp;P1;durP1;ratioP1;P2;durP2;ratioP2
63536;SDS011;49686;51.880;5.632;2022-09-13T00:01:34;13.77;;;11.20;;
63536;SDS011;49686;51.880;5.632;2022-09-13T00:04:02;16.00;;;10.68;;
63536;SDS011;49686;51.880;5.632;2022-09-13T00:06:29;16.52;;;11.10;;
63536;SDS011;49686;51.880;5.632;2022-09-13T00:08:56;18.27;;;11.68;;
63536;SDS011;49686;51.880;5.632;2022-09-13T00:11:25;12.88;;;11.32;;
63536;SDS011;49686;51.880;5.632;2022-09-13T00:13:53;14.80;;;12.00;;
63536;SDS011;49686;51.880;5.632;2022-09-13T00:16:22;14.45;;;11.40;;
63536;SDS011;49686;51.880;5.632;2022-09-13T00:18:51;15.82;;;11.82;;
63536;SDS011;49686;51.880;5.632;2022-09-13T00:21:20;15.45;;;12.18;;
63536;SDS011;49686;51.880;5.632;2022-09-13T00:23:49;14.23;;;12.38;;
63536;SDS011;49686;51.880;5.632;2022-09-13T00:26:18;14.43;;;10.65;;
63536;SDS011;49686;51.880;5.632;2022-09-13T00:31:15;15.55;;;10.98;;
63536;SDS011;49686;51.880;5.632;2022-09-13T00:33:43;14.30;;;10.40;;
63536;SDS011;49686;51.880;5.632;2022-09-13T00:36:10;13.23;;;10.90;;
63536;SDS011;49686;51.880;5.632;2022-09-13T00:38:38;16.83;;;11.98;;
63536;SDS011;49686;51.880;5.632;2022-09-13T00:41:06;11.90;;;9.73;;
63536;SDS011;49686;51.880;5.632;2022-09-13T00:43:39;14.98;;;10.95;;
63536;SDS011;49686;51.880;5.632;2022-09-13T00:46:10;12.27;;;10.43;;
63536;SDS011;49686;51.880;5.632;2022-09-13T00:48:38;14.68;;;11.02;;
63536;SDS011;49686;51.880;5.632;2022-09-13T00:51:06;15.05;;;11.00;;
63536;SDS011;49686;51.880;5.632;2022-09-13T00:53:37;12.57;;;10.50;;
63536;SDS011;49686;51.880;5.632;2022-09-13T00:56:10;12.85;;;10.77;;
63536;SDS011;49686;51.880;5.632;2022-09-13T00:58:41;13.35;;;10.27;;
63536;SDS011;49686;51.880;5.632;2022-09-13T01:01:13;13.40;;;10.35;;
63536;SDS011;49686;51.880;5.632;2022-09-13T01:03:43;14.45;;;11.57;;
63536;SDS011;49686;51.880;5.632;2022-09-13T01:08:42;13.73;;;11.40;;
63536;SDS011;49686;51.880;5.632;2022-09-13T01:11:15;17.25;;;11.85;;
63536;SDS011;49686;51.880;5.632;2022-09-13T01:13:47;18.63;;;12.02;;
63536;SDS011;49686;51.880;5.632;2022-09-13T01:16:16;15.30;;;11.48;;
63536;SDS011;49686;51.880;5.632;2022-09-13T01:18:44;14.15;;;12.50;;
63536;SDS011;49686;51.880;5.632;2022-09-13T01:21:17;13.65;;;11.32;;
63536;SDS011;49686;51.880;5.632;2022-09-13T01:24:19;13.43;;;10.77;;
63536;SDS011;49686;51.880;5.632;2022-09-13T01:27:22;13.38;;;10.43;;
63536;SDS011;49686;51.880;5.632;2022-09-13T01:30:05;15.00;;;10.75;;
63536;SDS011;49686;51.880;5.632;2022-09-13T01:35:18;12.73;;;10.98;;
63536;SDS011;49686;51.880;5.632;2022-09-13T01:37:55;17.13;;;11.07;;
63536;SDS011;49686;51.880;5.632;2022-09-13T01:40:32;13.32;;;11.20;;
63536;SDS011;49686;51.880;5.632;2022-09-13T01:43:18;14.35;;;11.77;;
63536;SDS011;49686;51.880;5.632;2022-09-13T01:45:57;14.30;;;11.63;;
63536;SDS011;49686;51.880;5.632;2022-09-13T01:48:33;13.30;;;11.05;;
63536;SDS011;49686;51.880;5.632;2022-09-13T01:51:14;15.77;;;11.90;;
63536;SDS011;49686;51.880;5.632;2022-09-13T01:53:49;15.15;;;11.13;;
63536;SDS011;49686;51.880;5.632;2022-09-13T01:56:21;16.38;;;11.85;;
63536;SDS011;49686;51.880;5.632;2022-09-13T01:58:55;16.55;;;11.43;;
63536;SDS011;49686;51.880;5.632;2022-09-13T02:01:29;13.75;;;11.77;;
63536;SDS011;49686;51.880;5.632;2022-09-13T02:03:58;14.23;;;10.75;;
63536;SDS011;49686;51.880;5.632;2022-09-13T02:06:31;16.60;;;12.00;;
63536;SDS011;49686;51.880;5.632;2022-09-13T02:09:02;14.73;;;10.57;;
63536;SDS011;49686;51.880;5.632;2022-09-13T02:11:35;12.98;;;11.10;;
63536;SDS011;49686;51.880;5.632;2022-09-13T02:14:05;12.80;;;10.98;;
63536;SDS011;49686;51.880;5.632;2022-09-13T02:16:37;14.75;;;10.52;;
63536;SDS011;49686;51.880;5.632;2022-09-13T02:19:07;16.05;;;11.30;;
63536;SDS011;49686;51.880;5.632;2022-09-13T02:21:38;15.52;;;11.45;;
63536;SDS011;49686;51.880;5.632;2022-09-13T02:24:09;13.55;;;10.85;;
63536;SDS011;49686;51.880;5.632;2022-09-13T02:26:39;15.02;;;11.18;;
63536;SDS011;49686;51.880;5.632;2022-09-13T02:29:10;15.27;;;11.15;;
63536;SDS011;49686;51.880;5.632;2022-09-13T02:31:45;15.68;;;11.82;;
63536;SDS011;49686;51.880;5.632;2022-09-13T02:34:17;15.18;;;11.75;;
63536;SDS011;49686;51.880;5.632;2022-09-13T02:36:47;13.48;;;10.75;;
63536;SDS011;49686;51.880;5.632;2022-09-13T02:39:18;14.68;;;11.95;;
63536;SDS011;49686;51.880;5.632;2022-09-13T02:41:51;15.65;;;11.35;;
63536;SDS011;49686;51.880;5.632;2022-09-13T02:44:23;16.95;;;12.07;;
63536;SDS011;49686;51.880;5.632;2022-09-13T02:47:05;15.75;;;11.70;;
63536;SDS011;49686;51.880;5.632;2022-09-13T02:49:40;13.60;;;11.30;;
63536;SDS011;49686;51.880;5.632;2022-09-13T02:52:16;15.50;;;11.27;;
63536;SDS011;49686;51.880;5.632;2022-09-13T02:54:51;13.90;;;11.25;;
63536;SDS011;49686;51.880;5.632;2022-09-13T02:57:25;15.75;;;11.63;;
63536;SDS011;49686;51.880;5.632;2022-09-13T02:59:56;14.73;;;11.85;;
63536;SDS011;49686;51.880;5.632;2022-09-13T03:02:26;14.52;;;11.70;;
63536;SDS011;49686;51.880;5.632;2022-09-13T03:04:57;16.00;;;11.43;;
63536;SDS011;49686;51.880;5.632;2022-09-13T03:07:24;19.70;;;11.63;;
63536;SDS011;49686;51.880;5.632;2022-09-13T03:09:53;14.15;;;11.82;;
63536;SDS011;49686;51.880;5.632;2022-09-13T03:12:39;14.43;;;12.00;;
63536;SDS011;49686;51.880;5.632;2022-09-13T03:15:18;13.80;;;11.57;;
63536;SDS011;49686;51.880;5.632;2022-09-13T03:17:58;14.27;;;11.68;;
63536;SDS011;49686;51.880;5.632;2022-09-13T03:20:34;15.88;;;12.07;;
63536;SDS011;49686;51.880;5.632;2022-09-13T03:23:12;14.63;;;13.10;;
63536;SDS011;49686;51.880;5.632;2022-09-13T03:25:53;12.95;;;9.70;;
63536;SDS011;49686;51.880;5.632;2022-09-13T03:28:35;15.85;;;12.23;;
63536;SDS011;49686;51.880;5.632;2022-09-13T03:31:11;15.32;;;11.85;;
63536;SDS011;49686;51.880;5.632;2022-09-13T03:33:50;14.50;;;11.70;;
63536;SDS011;49686;51.880;5.632;2022-09-13T03:36:23;13.70;;;10.80;;
63536;SDS011;49686;51.880;5.632;2022-09-13T03:38:59;16.40;;;11.90;;
63536;SDS011;49686;51.880;5.632;2022-09-13T03:41:31;15.93;;;12.38;;
63536;SDS011;49686;51.880;5.632;2022-09-13T03:44:02;16.08;;;12.25;;
63536;SDS011;49686;51.880;5.632;2022-09-13T03:46:34;16.30;;;12.07;;
63536;SDS011;49686;51.880;5.632;2022-09-13T03:49:06;14.60;;;12.10;;
63536;SDS011;49686;51.880;5.632;2022-09-13T03:51:35;16.88;;;13.45;;
63536;SDS011;49686;51.880;5.632;2022-09-13T03:54:05;18.88;;;12.85;;
63536;SDS011;49686;51.880;5.632;2022-09-13T03:56:34;16.45;;;12.85;;
63536;SDS011;49686;51.880;5.632;2022-09-13T03:59:01;16.35;;;12.88;;
63536;SDS011;49686;51.880;5.632;2022-09-13T04:01:29;16.48;;;12.40;;
63536;SDS011;49686;51.880;5.632;2022-09-13T04:03:55;14.95;;;13.10;;
63536;SDS011;49686;51.880;5.632;2022-09-13T04:06:23;15.43;;;12.77;;
63536;SDS011;49686;51.880;5.632;2022-09-13T04:08:51;14.82;;;11.70;;
63536;SDS011;49686;51.880;5.632;2022-09-13T04:11:18;16.38;;;12.65;;
63536;SDS011;49686;51.880;5.632;2022-09-13T04:13:45;15.50;;;12.35;;
63536;SDS011;49686;51.880;5.632;2022-09-13T04:16:12;14.45;;;12.60;;
63536;SDS011;49686;51.880;5.632;2022-09-13T04:18:39;15.30;;;12.90;;
63536;SDS011;49686;51.880;5.632;2022-09-13T04:21:07;15.90;;;12.93;;
63536;SDS011;49686;51.880;5.632;2022-09-13T04:23:36;16.95;;;13.27;;
63536;SDS011;49686;51.880;5.632;2022-09-13T04:26:03;18.67;;;13.27;;
63536;SDS011;49686;51.880;5.632;2022-09-13T04:28:31;15.35;;;12.32;;
63536;SDS011;49686;51.880;5.632;2022-09-13T04:30:58;16.05;;;12.10;;
63536;SDS011;49686;51.880;5.632;2022-09-13T04:33:25;16.48;;;12.80;;
63536;SDS011;49686;51.880;5.632;2022-09-13T04:35:56;15.02;;;12.32;;
63536;SDS011;49686;51.880;5.632;2022-09-13T04:38:23;13.75;;;12.27;;
63536;SDS011;49686;51.880;5.632;2022-09-13T04:40:52;18.17;;;12.93;;
63536;SDS011;49686;51.880;5.632;2022-09-13T04:43:20;17.77;;;12.13;;
63536;SDS011;49686;51.880;5.632;2022-09-13T04:45:47;17.13;;;12.55;;
63536;SDS011;49686;51.880;5.632;2022-09-13T04:48:14;14.93;;;11.60;;
63536;SDS011;49686;51.880;5.632;2022-09-13T04:50:41;14.77;;;12.20;;
63536;SDS011;49686;51.880;5.632;2022-09-13T04:53:08;18.38;;;13.50;;
63536;SDS011;49686;51.880;5.632;2022-09-13T04:55:35;18.38;;;13.02;;
63536;SDS011;49686;51.880;5.632;2022-09-13T04:58:03;15.73;;;12.15;;
63536;SDS011;49686;51.880;5.632;2022-09-13T05:00:30;18.08;;;12.90;;
63536;SDS011;49686;51.880;5.632;2022-09-13T05:02:57;19.45;;;12.48;;
63536;SDS011;49686;51.880;5.632;2022-09-13T05:05:25;15.35;;;12.38;;
63536;SDS011;49686;51.880;5.632;2022-09-13T05:07:51;16.98;;;12.10;;
63536;SDS011;49686;51.880;5.632;2022-09-13T05:10:18;16.85;;;12.30;;
63536;SDS011;49686;51.880;5.632;2022-09-13T05:12:46;17.25;;;11.60;;
63536;SDS011;49686;51.880;5.632;2022-09-13T05:15:14;18.70;;;12.57;;
63536;SDS011;49686;51.880;5.632;2022-09-13T05:17:41;20.00;;;14.25;;
63536;SDS011;49686;51.880;5.632;2022-09-13T05:20:09;18.83;;;13.30;;
63536;SDS011;49686;51.880;5.632;2022-09-13T05:22:35;16.23;;;12.77;;
63536;SDS011;49686;51.880;5.632;2022-09-13T05:25:02;19.73;;;13.70;;
63536;SDS011;49686;51.880;5.632;2022-09-13T05:27:30;17.45;;;13.38;;
63536;SDS011;49686;51.880;5.632;2022-09-13T05:29:57;15.65;;;12.45;;
63536;SDS011;49686;51.880;5.632;2022-09-13T05:32:25;16.90;;;13.32;;
63536;SDS011;49686;51.880;5.632;2022-09-13T05:34:53;20.08;;;13.07;;
63536;SDS011;49686;51.880;5.632;2022-09-13T05:37:19;20.42;;;12.70;;
63536;SDS011;49686;51.880;5.632;2022-09-13T05:39:46;19.35;;;13.48;;
63536;SDS011;49686;51.880;5.632;2022-09-13T05:42:33;17.45;;;12.57;;
63536;SDS011;49686;51.880;5.632;2022-09-13T05:45:00;19.88;;;13.95;;
63536;SDS011;49686;51.880;5.632;2022-09-13T05:47:28;17.25;;;13.95;;
63536;SDS011;49686;51.880;5.632;2022-09-13T05:49:56;18.23;;;14.35;;
63536;SDS011;49686;51.880;5.632;2022-09-13T05:52:42;21.17;;;13.48;;
63536;SDS011;49686;51.880;5.632;2022-09-13T05:55:10;16.75;;;13.45;;
63536;SDS011;49686;51.880;5.632;2022-09-13T05:57:36;18.98;;;15.48;;
63536;SDS011;49686;51.880;5.632;2022-09-13T06:00:03;18.40;;;13.63;;
63536;SDS011;49686;51.880;5.632;2022-09-13T06:02:33;22.45;;;14.15;;
63536;SDS011;49686;51.880;5.632;2022-09-13T06:04:59;21.10;;;14.73;;
63536;SDS011;49686;51.880;5.632;2022-09-13T06:07:26;23.73;;;13.15;;
63536;SDS011;49686;51.880;5.632;2022-09-13T06:09:54;18.48;;;13.77;;
63536;SDS011;49686;51.880;5.632;2022-09-13T06:12:21;20.70;;;13.63;;
63536;SDS011;49686;51.880;5.632;2022-09-13T06:14:47;21.88;;;13.80;;
63536;SDS011;49686;51.880;5.632;2022-09-13T06:17:15;16.75;;;14.20;;
63536;SDS011;49686;51.880;5.632;2022-09-13T06:19:43;17.77;;;13.75;;
63536;SDS011;49686;51.880;5.632;2022-09-13T06:22:10;21.20;;;14.20;;
63536;SDS011;49686;51.880;5.632;2022-09-13T06:24:37;20.58;;;14.88;;
63536;SDS011;49686;51.880;5.632;2022-09-13T06:27:04;17.90;;;13.52;;
63536;SDS011;49686;51.880;5.632;2022-09-13T06:29:31;22.83;;;13.63;;
63536;SDS011;49686;51.880;5.632;2022-09-13T06:31:58;20.15;;;13.88;;
63536;SDS011;49686;51.880;5.632;2022-09-13T06:34:25;14.50;;;11.70;;
63536;SDS011;49686;51.880;5.632;2022-09-13T06:36:57;17.98;;;12.85;;
63536;SDS011;49686;51.880;5.632;2022-09-13T06:39:26;20.60;;;13.90;;
63536;SDS011;49686;51.880;5.632;2022-09-13T06:41:53;29.30;;;13.93;;
63536;SDS011;49686;51.880;5.632;2022-09-13T06:44:20;20.63;;;13.63;;
63536;SDS011;49686;51.880;5.632;2022-09-13T06:46:47;18.73;;;13.13;;
63536;SDS011;49686;51.880;5.632;2022-09-13T06:51:42;19.05;;;14.75;;
63536;SDS011;49686;51.880;5.632;2022-09-13T06:54:11;23.88;;;15.00;;
63536;SDS011;49686;51.880;5.632;2022-09-13T06:56:38;17.20;;;13.02;;
63536;SDS011;49686;51.880;5.632;2022-09-13T06:59:08;20.95;;;14.05;;
63536;SDS011;49686;51.880;5.632;2022-09-13T07:01:37;19.13;;;14.32;;
63536;SDS011;49686;51.880;5.632;2022-09-13T07:04:05;22.77;;;14.45;;
63536;SDS011;49686;51.880;5.632;2022-09-13T07:06:34;18.20;;;15.48;;
63536;SDS011;49686;51.880;5.632;2022-09-13T07:09:04;23.85;;;16.80;;
63536;SDS011;49686;51.880;5.632;2022-09-13T07:11:48;18.45;;;15.05;;
63536;SDS011;49686;51.880;5.632;2022-09-13T07:14:17;20.25;;;15.52;;
63536;SDS011;49686;51.880;5.632;2022-09-13T07:16:45;20.70;;;15.55;;
63536;SDS011;49686;51.880;5.632;2022-09-13T07:19:13;18.83;;;15.48;;
63536;SDS011;49686;51.880;5.632;2022-09-13T07:21:42;18.50;;;14.52;;
63536;SDS011;49686;51.880;5.632;2022-09-13T07:26:53;23.48;;;16.10;;
63536;SDS011;49686;51.880;5.632;2022-09-13T07:29:23;21.90;;;17.33;;
63536;SDS011;49686;51.880;5.632;2022-09-13T07:31:53;22.67;;;17.20;;
63536;SDS011;49686;51.880;5.632;2022-09-13T07:34:21;24.65;;;17.75;;
63536;SDS011;49686;51.880;5.632;2022-09-13T07:36:49;26.75;;;19.15;;
63536;SDS011;49686;51.880;5.632;2022-09-13T07:39:17;28.00;;;19.47;;
63536;SDS011;49686;51.880;5.632;2022-09-13T07:41:48;25.55;;;19.48;;
63536;SDS011;49686;51.880;5.632;2022-09-13T07:44:16;25.80;;;18.23;;
63536;SDS011;49686;51.880;5.632;2022-09-13T07:46:44;25.02;;;18.45;;
63536;SDS011;49686;51.880;5.632;2022-09-13T07:49:11;21.63;;;17.10;;
63536;SDS011;49686;51.880;5.632;2022-09-13T07:51:39;23.95;;;17.85;;
63536;SDS011;49686;51.880;5.632;2022-09-13T07:54:09;20.23;;;15.90;;
63536;SDS011;49686;51.880;5.632;2022-09-13T07:56:38;23.52;;;15.82;;
63536;SDS011;49686;51.880;5.632;2022-09-13T07:59:10;21.33;;;15.50;;
63536;SDS011;49686;51.880;5.632;2022-09-13T08:01:39;19.55;;;14.20;;
63536;SDS011;49686;51.880;5.632;2022-09-13T08:04:09;17.88;;;13.35;;
63536;SDS011;49686;51.880;5.632;2022-09-13T08:06:37;17.55;;;13.77;;
63536;SDS011;49686;51.880;5.632;2022-09-13T08:11:34;20.48;;;13.15;;
63536;SDS011;49686;51.880;5.632;2022-09-13T08:14:03;20.00;;;13.68;;
63536;SDS011;49686;51.880;5.632;2022-09-13T08:16:30;19.40;;;13.15;;
63536;SDS011;49686;51.880;5.632;2022-09-13T08:18:59;16.07;;;13.73;;
63536;SDS011;49686;51.880;5.632;2022-09-13T08:21:30;13.52;;;10.00;;
63536;SDS011;49686;51.880;5.632;2022-09-13T08:23:58;16.77;;;11.88;;
63536;SDS011;49686;51.880;5.632;2022-09-13T08:26:25;11.43;;;8.52;;
63536;SDS011;49686;51.880;5.632;2022-09-13T08:28:54;12.35;;;9.40;;
63536;SDS011;49686;51.880;5.632;2022-09-13T08:31:23;12.05;;;8.77;;
63536;SDS011;49686;51.880;5.632;2022-09-13T08:33:50;12.18;;;7.70;;
63536;SDS011;49686;51.880;5.632;2022-09-13T08:36:19;8.73;;;6.70;;
63536;SDS011;49686;51.880;5.632;2022-09-13T08:38:47;10.15;;;7.13;;
63536;SDS011;49686;51.880;5.632;2022-09-13T08:41:20;13.20;;;7.38;;
63536;SDS011;49686;51.880;5.632;2022-09-13T08:43:58;10.48;;;8.85;;
63536;SDS011;49686;51.880;5.632;2022-09-13T08:46:31;9.20;;;7.00;;
63536;SDS011;49686;51.880;5.632;2022-09-13T08:49:02;12.57;;;7.28;;
63536;SDS011;49686;51.880;5.632;2022-09-13T08:51:39;9.90;;;6.75;;
63536;SDS011;49686;51.880;5.632;2022-09-13T08:54:10;9.38;;;7.30;;
63536;SDS011;49686;51.880;5.632;2022-09-13T08:56:39;12.27;;;7.05;;
63536;SDS011;49686;51.880;5.632;2022-09-13T08:59:14;9.68;;;7.13;;
63536;SDS011;49686;51.880;5.632;2022-09-13T09:01:53;10.60;;;6.75;;
63536;SDS011;49686;51.880;5.632;2022-09-13T09:04:30;6.05;;;4.80;;
63536;SDS011;49686;51.880;5.632;2022-09-13T09:07:05;7.25;;;5.72;;
63536;SDS011;49686;51.880;5.632;2022-09-13T09:09:39;8.38;;;6.47;;
63536;SDS011;49686;51.880;5.632;2022-09-13T09:12:14;9.00;;;5.57;;
63536;SDS011;49686;51.880;5.632;2022-09-13T09:14:50;14.13;;;8.38;;
63536;SDS011;49686;51.880;5.632;2022-09-13T09:17:27;11.55;;;7.50;;
63536;SDS011;49686;51.880;5.632;2022-09-13T09:20:01;12.65;;;8.82;;
63536;SDS011;49686;51.880;5.632;2022-09-13T09:22:36;11.63;;;8.35;;
63536;SDS011;49686;51.880;5.632;2022-09-13T09:25:03;12.75;;;8.40;;
63536;SDS011;49686;51.880;5.632;2022-09-13T09:27:30;15.32;;;9.40;;
63536;SDS011;49686;51.880;5.632;2022-09-13T09:29:58;14.43;;;9.73;;
63536;SDS011;49686;51.880;5.632;2022-09-13T09:32:37;13.15;;;8.88;;
63536;SDS011;49686;51.880;5.632;2022-09-13T09:35:18;13.02;;;8.98;;
63536;SDS011;49686;51.880;5.632;2022-09-13T09:38:04;10.70;;;8.27;;
63536;SDS011;49686;51.880;5.632;2022-09-13T09:40:42;9.95;;;6.80;;
63536;SDS011;49686;51.880;5.632;2022-09-13T09:43:11;10.50;;;8.18;;
63536;SDS011;49686;51.880;5.632;2022-09-13T09:45:43;8.40;;;6.80;;
63536;SDS011;49686;51.880;5.632;2022-09-13T09:48:11;9.02;;;6.68;;
63536;SDS011;49686;51.880;5.632;2022-09-13T09:50:46;8.15;;;6.38;;
63536;SDS011;49686;51.880;5.632;2022-09-13T09:53:17;7.90;;;5.30;;
63536;SDS011;49686;51.880;5.632;2022-09-13T09:55:51;8.25;;;5.38;;
63536;SDS011;49686;51.880;5.632;2022-09-13T09:58:35;8.15;;;6.57;;
63536;SDS011;49686;51.880;5.632;2022-09-13T10:01:03;8.68;;;6.20;;
63536;SDS011;49686;51.880;5.632;2022-09-13T10:03:36;7.15;;;4.75;;
63536;SDS011;49686;51.880;5.632;2022-09-13T10:06:05;11.45;;;6.00;;
63536;SDS011;49686;51.880;5.632;2022-09-13T10:08:36;7.95;;;5.45;;
63536;SDS011;49686;51.880;5.632;2022-09-13T10:11:05;7.63;;;4.97;;
63536;SDS011;49686;51.880;5.632;2022-09-13T10:13:33;9.00;;;5.67;;
63536;SDS011;49686;51.880;5.632;2022-09-13T10:16:00;8.43;;;5.95;;
63536;SDS011;49686;51.880;5.632;2022-09-13T10:18:30;7.50;;;5.85;;
63536;SDS011;49686;51.880;5.632;2022-09-13T10:21:19;9.13;;;6.28;;
63536;SDS011;49686;51.880;5.632;2022-09-13T10:23:51;9.13;;;5.60;;
63536;SDS011;49686;51.880;5.632;2022-09-13T10:26:38;8.43;;;6.07;;
63536;SDS011;49686;51.880;5.632;2022-09-13T10:29:06;6.68;;;4.80;;
63536;SDS011;49686;51.880;5.632;2022-09-13T10:31:35;6.50;;;4.68;;
63536;SDS011;49686;51.880;5.632;2022-09-13T10:34:04;6.60;;;4.18;;
63536;SDS011;49686;51.880;5.632;2022-09-13T10:36:37;7.22;;;5.45;;
63536;SDS011;49686;51.880;5.632;2022-09-13T10:39:20;4.95;;;4.15;;
63536;SDS011;49686;51.880;5.632;2022-09-13T10:41:50;5.00;;;3.70;;
63536;SDS011;49686;51.880;5.632;2022-09-13T10:44:23;6.82;;;3.50;;
63536;SDS011;49686;51.880;5.632;2022-09-13T10:46:55;3.53;;;2.70;;
63536;SDS011;49686;51.880;5.632;2022-09-13T10:49:33;6.00;;;3.08;;
63536;SDS011;49686;51.880;5.632;2022-09-13T10:52:10;3.88;;;2.60;;
63536;SDS011;49686;51.880;5.632;2022-09-13T10:54:53;4.60;;;3.10;;
63536;SDS011;49686;51.880;5.632;2022-09-13T10:57:31;4.35;;;3.13;;
63536;SDS011;49686;51.880;5.632;2022-09-13T11:00:00;3.92;;;3.03;;
63536;SDS011;49686;51.880;5.632;2022-09-13T11:05:29;3.60;;;2.70;;
63536;SDS011;49686;51.880;5.632;2022-09-13T11:08:09;3.65;;;2.22;;
63536;SDS011;49686;51.880;5.632;2022-09-13T11:10:56;4.68;;;3.10;;
63536;SDS011;49686;51.880;5.632;2022-09-13T11:13:34;4.15;;;2.40;;
63536;SDS011;49686;51.880;5.632;2022-09-13T11:16:15;6.55;;;2.60;;
63536;SDS011;49686;51.880;5.632;2022-09-13T11:19:18;2.53;;;2.33;;
63536;SDS011;49686;51.880;5.632;2022-09-13T11:24:56;3.08;;;2.00;;
63536;SDS011;49686;51.880;5.632;2022-09-13T11:27:42;3.08;;;1.60;;
63536;SDS011;49686;51.880;5.632;2022-09-13T11:30:16;3.42;;;1.63;;
63536;SDS011;49686;51.880;5.632;2022-09-13T11:33:03;2.20;;;1.52;;
63536;SDS011;49686;51.880;5.632;2022-09-13T11:38:24;3.22;;;1.30;;
63536;SDS011;49686;51.880;5.632;2022-09-13T11:41:03;1.92;;;1.42;;
63536;SDS011;49686;51.880;5.632;2022-09-13T11:43:53;2.13;;;1.33;;
63536;SDS011;49686;51.880;5.632;2022-09-13T11:46:33;2.90;;;1.33;;
63536;SDS011;49686;51.880;5.632;2022-09-13T11:52:06;3.70;;;1.50;;
63536;SDS011;49686;51.880;5.632;2022-09-13T11:54:44;4.50;;;2.25;;
63536;SDS011;49686;51.880;5.632;2022-09-13T11:57:20;2.58;;;1.85;;
63536;SDS011;49686;51.880;5.632;2022-09-13T11:59:52;4.85;;;1.77;;
63536;SDS011;49686;51.880;5.632;2022-09-13T12:02:23;2.70;;;1.70;;
63536;SDS011;49686;51.880;5.632;2022-09-13T12:04:55;4.93;;;1.75;;
63536;SDS011;49686;51.880;5.632;2022-09-13T12:07:48;3.85;;;1.98;;
63536;SDS011;49686;51.880;5.632;2022-09-13T12:10:19;6.05;;;2.00;;
63536;SDS011;49686;51.880;5.632;2022-09-13T12:12:50;2.72;;;1.55;;
63536;SDS011;49686;51.880;5.632;2022-09-13T12:15:21;2.63;;;2.00;;
63536;SDS011;49686;51.880;5.632;2022-09-13T12:17:55;3.55;;;1.58;;
63536;SDS011;49686;51.880;5.632;2022-09-13T12:20:29;1.95;;;1.17;;
63536;SDS011;49686;51.880;5.632;2022-09-13T12:23:01;6.05;;;1.85;;
63536;SDS011;49686;51.880;5.632;2022-09-13T12:25:33;1.30;;;1.00;;
63536;SDS011;49686;51.880;5.632;2022-09-13T12:28:06;2.08;;;1.10;;
63536;SDS011;49686;51.880;5.632;2022-09-13T12:30:41;2.17;;;1.48;;
63536;SDS011;49686;51.880;5.632;2022-09-13T12:33:13;3.17;;;1.40;;
63536;SDS011;49686;51.880;5.632;2022-09-13T12:35:44;3.97;;;1.60;;
63536;SDS011;49686;51.880;5.632;2022-09-13T12:38:25;2.10;;;1.70;;
63536;SDS011;49686;51.880;5.632;2022-09-13T12:41:07;3.05;;;1.90;;
63536;SDS011;49686;51.880;5.632;2022-09-13T12:46:56;3.67;;;1.50;;
63536;SDS011;49686;51.880;5.632;2022-09-13T12:52:19;5.45;;;1.73;;
63536;SDS011;49686;51.880;5.632;2022-09-13T12:55:05;2.90;;;1.80;;
63536;SDS011;49686;51.880;5.632;2022-09-13T12:58:15;2.33;;;1.80;;
63536;SDS011;49686;51.880;5.632;2022-09-13T13:01:03;4.95;;;1.30;;
63536;SDS011;49686;51.880;5.632;2022-09-13T13:03:40;2.63;;;1.58;;
63536;SDS011;49686;51.880;5.632;2022-09-13T13:06:23;3.13;;;1.10;;
63536;SDS011;49686;51.880;5.632;2022-09-13T13:08:54;3.20;;;1.20;;
63536;SDS011;49686;51.880;5.632;2022-09-13T13:11:25;3.70;;;1.40;;
63536;SDS011;49686;51.880;5.632;2022-09-13T13:13:55;3.85;;;1.50;;
63536;SDS011;49686;51.880;5.632;2022-09-13T13:16:25;5.47;;;1.40;;
63536;SDS011;49686;51.880;5.632;2022-09-13T13:18:56;2.28;;;1.50;;
63536;SDS011;49686;51.880;5.632;2022-09-13T13:21:34;1.83;;;1.10;;
63536;SDS011;49686;51.880;5.632;2022-09-13T13:27:32;2.33;;;1.33;;
63536;SDS011;49686;51.880;5.632;2022-09-13T13:33:18;3.00;;;1.10;;
63536;SDS011;49686;51.880;5.632;2022-09-13T13:35:48;3.53;;;1.73;;
63536;SDS011;49686;51.880;5.632;2022-09-13T13:38:18;3.72;;;1.60;;
63536;SDS011;49686;51.880;5.632;2022-09-13T13:41:04;4.13;;;1.60;;
63536;SDS011;49686;51.880;5.632;2022-09-13T13:43:38;2.75;;;1.52;;
63536;SDS011;49686;51.880;5.632;2022-09-13T13:46:27;6.80;;;1.60;;
63536;SDS011;49686;51.880;5.632;2022-09-13T13:48:56;4.28;;;1.52;;
63536;SDS011;49686;51.880;5.632;2022-09-13T13:55:04;2.40;;;1.50;;
63536;SDS011;49686;51.880;5.632;2022-09-13T13:57:59;3.80;;;1.70;;
63536;SDS011;49686;51.880;5.632;2022-09-13T14:00:28;8.35;;;2.35;;
63536;SDS011;49686;51.880;5.632;2022-09-13T14:03:02;5.30;;;1.23;;
63536;SDS011;49686;51.880;5.632;2022-09-13T14:05:42;2.15;;;1.48;;
63536;SDS011;49686;51.880;5.632;2022-09-13T14:08:31;2.17;;;1.10;;
63536;SDS011;49686;51.880;5.632;2022-09-13T14:11:07;3.45;;;1.35;;
63536;SDS011;49686;51.880;5.632;2022-09-13T14:13:45;2.08;;;1.40;;
63536;SDS011;49686;51.880;5.632;2022-09-13T14:16:24;2.47;;;1.33;;
63536;SDS011;49686;51.880;5.632;2022-09-13T14:19:09;1.65;;;1.25;;
63536;SDS011;49686;51.880;5.632;2022-09-13T14:21:46;2.95;;;1.33;;
63536;SDS011;49686;51.880;5.632;2022-09-13T14:24:35;3.55;;;1.50;;
63536;SDS011;49686;51.880;5.632;2022-09-13T14:27:02;2.50;;;1.30;;
63536;SDS011;49686;51.880;5.632;2022-09-13T14:29:35;7.80;;;1.30;;
63536;SDS011;49686;51.880;5.632;2022-09-13T14:32:03;2.97;;;1.27;;
63536;SDS011;49686;51.880;5.632;2022-09-13T14:34:33;2.20;;;1.15;;
63536;SDS011;49686;51.880;5.632;2022-09-13T14:37:05;2.65;;;1.35;;
63536;SDS011;49686;51.880;5.632;2022-09-13T14:39:52;2.53;;;1.30;;
63536;SDS011;49686;51.880;5.632;2022-09-13T14:42:21;6.47;;;1.45;;
63536;SDS011;49686;51.880;5.632;2022-09-13T14:44:48;5.38;;;1.20;;
63536;SDS011;49686;51.880;5.632;2022-09-13T14:47:15;2.42;;;1.20;;
63536;SDS011;49686;51.880;5.632;2022-09-13T14:49:51;4.55;;;1.40;;
63536;SDS011;49686;51.880;5.632;2022-09-13T14:52:25;3.53;;;1.40;;
63536;SDS011;49686;51.880;5.632;2022-09-13T14:54:57;5.25;;;1.30;;
63536;SDS011;49686;51.880;5.632;2022-09-13T14:57:28;5.80;;;1.50;;
63536;SDS011;49686;51.880;5.632;2022-09-13T14:59:57;6.15;;;1.65;;
63536;SDS011;49686;51.880;5.632;2022-09-13T15:02:28;3.25;;;1.08;;
63536;SDS011;49686;51.880;5.632;2022-09-13T15:04:59;4.03;;;1.33;;
63536;SDS011;49686;51.880;5.632;2022-09-13T15:07:28;4.15;;;1.42;;
63536;SDS011;49686;51.880;5.632;2022-09-13T15:09:57;2.80;;;1.10;;
63536;SDS011;49686;51.880;5.632;2022-09-13T15:12:32;3.30;;;1.33;;
63536;SDS011;49686;51.880;5.632;2022-09-13T15:15:18;4.40;;;1.20;;
63536;SDS011;49686;51.880;5.632;2022-09-13T15:17:55;3.95;;;1.25;;
63536;SDS011;49686;51.880;5.632;2022-09-13T15:20:25;2.53;;;1.15;;
63536;SDS011;49686;51.880;5.632;2022-09-13T15:22:56;2.55;;;1.40;;
63536;SDS011;49686;51.880;5.632;2022-09-13T15:25:23;3.67;;;1.77;;
63536;SDS011;49686;51.880;5.632;2022-09-13T15:27:52;1.95;;;1.20;;
63536;SDS011;49686;51.880;5.632;2022-09-13T15:30:21;5.38;;;1.30;;
63536;SDS011;49686;51.880;5.632;2022-09-13T15:33:02;2.97;;;1.00;;
63536;SDS011;49686;51.880;5.632;2022-09-13T15:35:47;5.28;;;1.45;;
63536;SDS011;49686;51.880;5.632;2022-09-13T15:41:02;2.42;;;1.30;;
63536;SDS011;49686;51.880;5.632;2022-09-13T15:43:38;3.65;;;1.20;;
63536;SDS011;49686;51.880;5.632;2022-09-13T15:46:05;3.93;;;1.30;;
63536;SDS011;49686;51.880;5.632;2022-09-13T15:48:37;3.42;;;1.50;;
63536;SDS011;49686;51.880;5.632;2022-09-13T15:51:06;2.42;;;1.10;;